createdAt,value
2024-05-09T00:01:48.814Z,9.94
2024-05-09T00:04:37.316Z,10.23
2024-05-09T00:07:22.600Z,9.78
2024-05-09T00:10:11.834Z,10.57
2024-05-09T00:13:03.596Z,10.99
2024-05-09T00:15:50.940Z,10.85
2024-05-09T00:18:36.275Z,10.75
2024-05-09T00:21:21.502Z,10.89
2024-05-09T00:24:06.769Z,11.04
2024-05-09T00:26:54.661Z,10.72
2024-05-09T00:29:42.900Z,11.13
2024-05-09T00:32:28.369Z,11.15
2024-05-09T00:35:13.581Z,11.29
2024-05-09T00:37:58.812Z,11.43
2024-05-09T00:40:53.501Z,11.88
2024-05-09T00:43:39.156Z,12.46
2024-05-09T00:46:28.068Z,12.47
2024-05-09T00:49:23.899Z,12.75
2024-05-09T00:52:09.621Z,13.39
2024-05-09T00:54:57.738Z,12.54
2024-05-09T00:57:42.908Z,13.64
2024-05-09T01:00:35.948Z,13.80
2024-05-09T01:03:25.264Z,13.80
2024-05-09T01:06:12.772Z,14.18
2024-05-09T01:08:58.169Z,14.04
2024-05-09T01:11:46.772Z,14.10
2024-05-09T01:14:37.331Z,14.35
2024-05-09T01:17:39.252Z,14.02
2024-05-09T01:20:39.660Z,13.78
2024-05-09T01:23:32.461Z,12.42
2024-05-09T01:26:20.375Z,11.55
2024-05-09T01:29:09.216Z,11.30
2024-05-09T01:31:55.107Z,11.81
2024-05-09T01:34:40.673Z,12.16
2024-05-09T01:37:26.272Z,11.95
2024-05-09T01:40:22.106Z,12.64
2024-05-09T01:43:11.643Z,12.75
2024-05-09T01:45:57.254Z,12.05
2024-05-09T01:48:42.607Z,12.38
2024-05-09T01:51:28.137Z,12.95
2024-05-09T01:54:14.588Z,12.20
2024-05-09T01:57:00.181Z,13.21
2024-05-09T01:59:45.595Z,13.71
2024-05-09T02:02:30.599Z,13.23
2024-05-09T02:05:16.150Z,13.43
2024-05-09T02:08:04.806Z,13.37
2024-05-09T02:10:50.601Z,13.32
2024-05-09T02:13:36.260Z,12.86
2024-05-09T02:16:21.411Z,12.82
2024-05-09T02:19:10.034Z,12.60
2024-05-09T02:21:55.612Z,13.06
2024-05-09T02:24:40.834Z,13.62
2024-05-09T02:27:26.248Z,13.70
2024-05-09T02:30:18.801Z,13.50
2024-05-09T02:33:13.222Z,13.36
2024-05-09T02:36:02.616Z,13.54
2024-05-09T02:38:49.900Z,13.26
2024-05-09T02:41:38.230Z,14.26
2024-05-09T02:44:23.721Z,15.26
2024-05-09T02:47:15.484Z,14.75
2024-05-09T02:50:00.910Z,14.98
2024-05-09T02:52:46.378Z,15.32
2024-05-09T02:55:31.910Z,15.52
2024-05-09T02:58:17.066Z,15.46
2024-05-09T03:01:03.487Z,15.52
2024-05-09T03:03:49.164Z,14.96
2024-05-09T03:06:34.130Z,15.14
2024-05-09T03:09:21.476Z,15.43
2024-05-09T03:12:07.038Z,16.35
2024-05-09T03:14:56.517Z,15.42
2024-05-09T03:17:42.150Z,16.18
2024-05-09T03:20:33.296Z,16.50
2024-05-09T03:23:20.479Z,16.32
2024-05-09T03:26:05.747Z,16.31
2024-05-09T03:28:54.448Z,16.48
2024-05-09T03:31:42.951Z,16.70
2024-05-09T03:34:28.306Z,17.13
2024-05-09T03:37:13.671Z,16.32
2024-05-09T03:40:09.134Z,15.73
2024-05-09T03:43:00.478Z,14.72
2024-05-09T03:45:46.150Z,13.98
2024-05-09T03:48:31.349Z,14.11
2024-05-09T03:51:16.728Z,14.15
2024-05-09T03:54:03.833Z,15.21
2024-05-09T03:56:56.602Z,15.12
2024-05-09T03:59:49.755Z,14.58
2024-05-09T04:02:38.053Z,14.01
2024-05-09T04:08:22.456Z,15.27
2024-05-09T04:11:14.120Z,14.83
2024-05-09T04:13:59.312Z,14.75
2024-05-09T04:16:47.674Z,14.42
2024-05-09T04:19:33.027Z,15.29
2024-05-09T04:22:18.145Z,15.37
2024-05-09T04:25:07.954Z,15.91
2024-05-09T04:27:53.705Z,15.16
2024-05-09T04:30:41.112Z,16.57
2024-05-09T04:33:28.722Z,16.41
2024-05-09T04:36:16.891Z,15.38
2024-05-09T04:39:03.297Z,15.48
2024-05-09T04:41:49.831Z,14.92
2024-05-09T04:44:35.094Z,15.37
2024-05-09T04:47:20.399Z,14.94
2024-05-09T04:50:05.753Z,15.19
2024-05-09T04:52:51.073Z,14.97
2024-05-09T04:55:36.517Z,14.75
2024-05-09T04:58:21.614Z,14.34
2024-05-09T05:01:11.182Z,13.90
2024-05-09T05:04:04.811Z,13.95
2024-05-09T05:06:50.087Z,14.85
2024-05-09T05:09:36.608Z,13.86
2024-05-09T05:12:22.078Z,14.44
2024-05-09T05:15:07.312Z,15.21
2024-05-09T05:17:52.488Z,14.58
2024-05-09T05:20:37.507Z,14.33
2024-05-09T05:23:22.994Z,13.98
2024-05-09T05:26:08.431Z,13.94
2024-05-09T05:28:53.778Z,14.12
2024-05-09T05:31:42.188Z,14.54
2024-05-09T05:34:27.439Z,14.19
2024-05-09T05:37:13.827Z,14.23
2024-05-09T05:39:59.184Z,13.78
2024-05-09T05:42:44.517Z,14.31
2024-05-09T05:45:31.270Z,14.65
2024-05-09T05:48:17.209Z,14.06
2024-05-09T05:51:04.610Z,14.04
2024-05-09T05:53:50.348Z,14.20
2024-05-09T05:56:35.729Z,13.94
2024-05-09T05:59:21.830Z,13.44
2024-05-09T06:02:07.094Z,14.15
2024-05-09T06:04:52.298Z,14.34
2024-05-09T06:07:37.918Z,14.37
2024-05-09T06:10:29.633Z,14.26
2024-05-09T06:13:20.233Z,14.19
2024-05-09T06:16:05.534Z,15.39
2024-05-09T06:18:55.528Z,15.08
2024-05-09T06:21:45.996Z,15.66
2024-05-09T06:24:31.380Z,16.69
2024-05-09T06:27:19.993Z,19.54
2024-05-09T06:30:08.232Z,16.11
2024-05-09T06:33:04.750Z,16.28
2024-05-09T06:35:50.461Z,15.79
2024-05-09T06:38:37.404Z,16.52
2024-05-09T06:41:22.868Z,16.38
2024-05-09T06:44:08.195Z,16.29
2024-05-09T06:46:54.622Z,17.38
2024-05-09T06:49:44.255Z,16.35
2024-05-09T06:52:31.422Z,16.85
2024-05-09T06:55:16.859Z,16.32
2024-05-09T06:58:02.197Z,16.79
2024-05-09T07:00:47.693Z,17.10
2024-05-09T07:03:32.836Z,16.80
2024-05-09T07:06:20.370Z,16.65
2024-05-09T07:09:05.885Z,16.02
2024-05-09T07:11:53.612Z,15.58
2024-05-09T07:14:38.851Z,14.82
2024-05-09T07:17:31.515Z,15.19
2024-05-09T07:20:23.664Z,15.10
2024-05-09T07:23:20.140Z,14.60
2024-05-09T07:26:05.465Z,14.60
2024-05-09T07:28:50.897Z,15.19
2024-05-09T07:31:38.178Z,14.66
2024-05-09T07:34:24.294Z,14.67
2024-05-09T07:37:10.443Z,14.35
2024-05-09T07:39:57.389Z,14.59
2024-05-09T07:42:43.951Z,14.76
2024-05-09T07:45:47.562Z,13.60
2024-05-09T07:53:14.224Z,13.07
2024-05-09T07:54:44.307Z,15.11
2024-05-09T07:57:29.462Z,12.42
2024-05-09T08:00:20.368Z,17.00
2024-05-09T08:06:17.885Z,12.16
2024-05-09T08:09:21.367Z,12.28
2024-05-09T08:15:12.723Z,11.95
2024-05-09T08:18:01.386Z,11.86
2024-05-09T08:20:57.015Z,10.97
2024-05-09T08:23:49.318Z,11.19
2024-05-09T08:26:47.127Z,12.18
2024-05-09T08:32:35.943Z,11.20
2024-05-09T08:38:40.502Z,11.26
2024-05-09T08:44:48.142Z,9.98
2024-05-09T08:50:38.553Z,9.17
2024-05-09T08:53:25.385Z,16.27
2024-05-09T08:56:14.872Z,10.86
2024-05-09T08:59:00.726Z,10.20
2024-05-09T09:04:48.738Z,11.91
2024-05-09T09:10:43.081Z,15.01
2024-05-09T09:13:40.355Z,12.76
2024-05-09T09:16:25.800Z,11.70
2024-05-09T09:22:26.072Z,19.71
2024-05-09T09:31:28.773Z,12.54
2024-05-09T09:34:26.818Z,12.70
2024-05-09T09:37:12.074Z,13.09
2024-05-09T09:40:32.073Z,11.88
2024-05-09T09:43:12.055Z,12.68
2024-05-09T09:45:57.643Z,12.36
2024-05-09T09:48:43.419Z,12.58
2024-05-09T09:51:54.575Z,14.81
2024-05-09T09:54:49.788Z,30.77
2024-05-09T09:57:56.822Z,13.60
2024-05-09T10:00:49.910Z,13.47
2024-05-09T10:03:39.345Z,20.12
2024-05-09T10:06:38.443Z,16.71
2024-05-09T10:22:12.561Z,19.53
2024-05-09T10:25:23.305Z,13.03
2024-05-09T10:29:15.045Z,16.36
2024-05-09T10:31:27.706Z,12.58
2024-05-09T10:37:23.072Z,11.68
2024-05-09T10:40:17.259Z,16.02
2024-05-09T10:46:06.918Z,12.40
2024-05-09T10:48:52.404Z,13.28
2024-05-09T10:51:38.615Z,11.88
2024-05-09T10:54:23.899Z,10.51
2024-05-09T10:57:09.123Z,11.63
2024-05-09T10:59:54.468Z,11.74
2024-05-09T11:02:39.947Z,12.06
2024-05-09T11:05:25.474Z,22.41
2024-05-09T11:08:10.751Z,14.99
2024-05-09T11:10:56.955Z,11.45
2024-05-09T11:13:42.370Z,12.91
2024-05-09T11:16:27.765Z,11.29
2024-05-09T11:19:13.113Z,10.67
2024-05-09T11:21:58.846Z,11.06
2024-05-09T11:24:44.081Z,11.15
2024-05-09T11:27:29.600Z,10.76
2024-05-09T11:30:24.175Z,10.85
2024-05-09T11:33:15.224Z,10.49
2024-05-09T11:36:03.543Z,12.47
2024-05-09T11:38:48.558Z,12.20
2024-05-09T11:41:33.857Z,9.83
2024-05-09T11:44:19.052Z,9.80
2024-05-09T11:47:04.335Z,13.39
2024-05-09T11:49:50.095Z,10.85
2024-05-09T11:52:54.095Z,9.69
2024-05-09T11:58:44.074Z,8.52
2024-05-09T12:01:32.527Z,9.21
2024-05-09T12:04:18.379Z,14.18
2024-05-09T12:07:04.311Z,12.45
2024-05-09T12:09:50.758Z,9.80
2024-05-09T12:12:38.932Z,9.18
2024-05-09T12:15:27.589Z,8.76
2024-05-09T12:18:20.922Z,7.81
2024-05-09T12:21:07.676Z,8.32
2024-05-09T12:23:56.977Z,12.27
2024-05-09T12:26:42.148Z,11.84
2024-05-09T12:29:30.822Z,10.99
2024-05-09T12:32:20.463Z,8.42
2024-05-09T12:35:07.780Z,9.40
2024-05-09T12:37:54.455Z,7.91
2024-05-09T12:40:43.702Z,8.00
2024-05-09T12:46:27.893Z,5.14
2024-05-09T12:49:22.748Z,4.96
2024-05-09T12:52:25.610Z,4.12
2024-05-09T12:55:22.891Z,4.30
2024-05-09T12:58:18.592Z,4.45
2024-05-09T13:01:03.906Z,4.56
2024-05-09T13:03:49.493Z,4.26
2024-05-09T13:06:37.920Z,4.09
2024-05-09T13:09:29.473Z,5.46
2024-05-09T13:12:17.723Z,5.89
2024-05-09T13:15:13.019Z,7.44
2024-05-09T13:18:02.943Z,6.07
2024-05-09T13:20:51.015Z,4.23
2024-05-09T13:26:46.266Z,4.90
2024-05-09T13:32:48.575Z,3.71
2024-05-09T13:35:34.030Z,5.49
2024-05-09T13:38:29.894Z,3.95
2024-05-09T13:44:30.885Z,4.40
2024-05-09T13:50:58.671Z,5.79
2024-05-09T13:53:36.803Z,5.05
2024-05-09T14:05:39.580Z,7.39
2024-05-09T14:08:34.965Z,4.41
2024-05-09T14:11:32.078Z,10.40
2024-05-09T14:14:28.647Z,3.46
2024-05-09T14:17:24.726Z,6.03
2024-05-09T14:23:24.382Z,4.74
2024-05-09T14:26:13.145Z,4.15
2024-05-09T14:32:15.789Z,3.54
2024-05-09T14:35:14.009Z,3.99
2024-05-09T14:38:17.476Z,4.55
2024-05-09T14:41:08.552Z,4.84
2024-05-09T14:50:19.621Z,3.81
2024-05-09T14:53:52.150Z,4.26
2024-05-09T14:59:53.785Z,3.94
2024-05-09T15:06:09.326Z,3.32
2024-05-09T15:08:56.317Z,3.77
2024-05-09T15:11:53.302Z,3.55
2024-05-09T15:15:09.151Z,3.24
2024-05-09T15:18:00.254Z,2.95
2024-05-09T15:20:48.557Z,4.92
2024-05-09T15:23:48.603Z,3.43
2024-05-09T15:26:43.463Z,3.28
2024-05-09T15:29:31.475Z,3.87
2024-05-09T15:41:39.054Z,3.23
2024-05-09T15:44:31.053Z,3.28
2024-05-09T15:47:23.902Z,3.17
2024-05-09T15:50:17.099Z,3.52
2024-05-09T15:53:08.221Z,3.43
2024-05-09T15:59:00.973Z,3.61
2024-05-09T16:01:46.268Z,3.81
2024-05-09T16:04:35.339Z,3.46
2024-05-09T16:07:24.725Z,3.45
2024-05-09T16:10:13.199Z,7.72
2024-05-09T16:13:04.888Z,3.96
2024-05-09T16:15:50.419Z,3.42
2024-05-09T16:18:37.690Z,5.32
2024-05-09T16:21:34.464Z,3.38
2024-05-09T16:24:19.992Z,3.21
2024-05-09T16:27:05.363Z,3.28
2024-05-09T16:29:50.731Z,3.40
2024-05-09T16:32:36.223Z,3.53
2024-05-09T16:35:21.267Z,3.67
2024-05-09T16:38:06.549Z,5.31
2024-05-09T16:40:59.562Z,4.27
2024-05-09T16:43:44.891Z,3.53
2024-05-09T16:46:30.410Z,10.51
2024-05-09T16:49:16.011Z,4.41
2024-05-09T16:52:01.632Z,3.45
2024-05-09T16:54:46.860Z,4.29
2024-05-09T16:57:31.893Z,3.88
2024-05-09T17:00:25.589Z,6.38
2024-05-09T17:03:17.382Z,4.17
2024-05-09T17:06:02.997Z,3.68
2024-05-09T17:08:48.603Z,3.54
2024-05-09T17:11:41.384Z,3.83
2024-05-09T17:14:29.225Z,7.84
2024-05-09T17:17:14.893Z,3.89
2024-05-09T17:23:00.522Z,3.55
2024-05-09T17:32:00.991Z,3.62
2024-05-09T17:34:46.356Z,3.61
2024-05-09T17:37:33.137Z,5.20
2024-05-09T17:40:27.903Z,4.71
2024-05-09T17:43:19.130Z,3.39
2024-05-09T17:46:13.674Z,4.05
2024-05-09T17:49:01.342Z,4.07
2024-05-09T17:51:47.426Z,3.40
2024-05-09T17:54:34.500Z,3.87
2024-05-09T17:57:20.012Z,3.51
2024-05-09T18:00:17.441Z,3.54
2024-05-09T18:03:06.738Z,3.62
2024-05-09T18:05:57.854Z,4.11
2024-05-09T18:08:43.323Z,4.20
2024-05-09T18:11:31.806Z,4.15
2024-05-09T18:14:17.058Z,6.95
2024-05-09T18:17:02.211Z,4.16
2024-05-09T18:19:47.469Z,4.58
2024-05-09T18:22:35.456Z,6.95
2024-05-09T18:25:20.718Z,4.32
2024-05-09T18:28:13.573Z,4.17
2024-05-09T18:31:02.809Z,5.55
2024-05-09T18:33:51.223Z,5.79
2024-05-09T18:36:37.178Z,6.03
2024-05-09T18:39:25.674Z,7.11
2024-05-09T18:42:10.684Z,5.74
2024-05-09T18:45:00.431Z,5.00
2024-05-09T18:47:46.069Z,16.17
2024-05-09T18:50:37.292Z,17.49
2024-05-09T18:53:25.143Z,7.40
2024-05-09T18:56:10.631Z,7.99
2024-05-09T18:58:55.775Z,6.94
2024-05-09T19:01:44.153Z,12.04
2024-05-09T19:04:29.421Z,8.99
2024-05-09T19:07:15.078Z,8.38
2024-05-09T19:10:00.491Z,6.82
2024-05-09T19:12:57.223Z,5.64
2024-05-09T19:15:43.389Z,5.27
2024-05-09T19:18:29.416Z,16.95
2024-05-09T19:21:14.935Z,9.85
2024-05-09T19:24:01.626Z,13.73
2024-05-09T19:26:49.267Z,11.44
2024-05-09T19:29:37.869Z,5.95
2024-05-09T19:32:27.715Z,6.41
2024-05-09T19:35:13.152Z,6.15
2024-05-09T19:38:00.911Z,6.33
2024-05-09T19:40:46.621Z,6.22
2024-05-09T19:43:34.601Z,5.99
2024-05-09T19:46:21.087Z,4.53
2024-05-09T19:49:06.920Z,4.73
2024-05-09T19:51:52.610Z,6.05
2024-05-09T19:54:43.300Z,13.34
2024-05-09T19:57:28.530Z,13.50
2024-05-09T20:00:22.236Z,5.14
2024-05-09T20:03:17.989Z,20.11
2024-05-09T20:06:09.659Z,6.06
2024-05-09T20:08:56.508Z,5.76
2024-05-09T20:11:50.376Z,8.56
2024-05-09T20:14:39.594Z,27.89
2024-05-09T20:17:25.103Z,7.78
2024-05-09T20:20:20.126Z,6.82
2024-05-09T20:23:15.614Z,4.90
2024-05-09T20:26:00.910Z,4.73
2024-05-09T20:28:51.496Z,5.10
2024-05-09T20:31:38.741Z,6.01
2024-05-09T20:34:25.410Z,8.51
2024-05-09T20:37:18.158Z,7.29
2024-05-09T20:40:05.168Z,4.72
2024-05-09T20:42:53.330Z,4.86
2024-05-09T20:45:39.960Z,4.83
2024-05-09T20:48:25.970Z,4.23
2024-05-09T20:51:12.511Z,4.48
2024-05-09T20:54:00.539Z,4.21
2024-05-09T20:56:45.802Z,4.98
2024-05-09T20:59:32.416Z,4.19
2024-05-09T21:02:18.290Z,4.16
2024-05-09T21:05:03.716Z,4.59
2024-05-09T21:07:48.821Z,4.18
2024-05-09T21:10:34.795Z,4.42
2024-05-09T21:13:25.948Z,4.32
2024-05-09T21:16:11.853Z,4.44
2024-05-09T21:18:57.421Z,7.61
2024-05-09T21:21:42.643Z,4.73
2024-05-09T21:24:27.923Z,5.19
2024-05-09T21:27:13.515Z,7.30
2024-05-09T21:29:58.893Z,5.28
2024-05-09T21:32:44.567Z,5.45
2024-05-09T21:35:30.027Z,7.08
2024-05-09T21:38:15.029Z,30.08
2024-05-09T21:41:02.626Z,35.11
2024-05-09T21:43:48.199Z,18.75
2024-05-09T21:46:35.883Z,6.92
2024-05-09T21:49:23.705Z,5.53
2024-05-09T21:52:08.885Z,4.62
2024-05-09T21:54:54.013Z,4.65
2024-05-09T21:57:45.745Z,4.62
2024-05-09T22:00:38.225Z,5.14
2024-05-09T22:03:25.135Z,5.04
2024-05-09T22:06:11.788Z,4.87
2024-05-09T22:08:57.233Z,4.92
2024-05-09T22:11:48.129Z,4.80
2024-05-09T22:14:41.247Z,5.30
2024-05-09T22:17:39.527Z,5.22
2024-05-09T22:20:36.548Z,4.63
2024-05-09T22:23:24.543Z,5.12
2024-05-09T22:26:09.839Z,4.96
2024-05-09T22:28:59.453Z,5.24
2024-05-09T22:31:46.305Z,4.94
2024-05-09T22:34:39.456Z,5.08
2024-05-09T22:40:33.047Z,8.13
2024-05-09T22:43:27.925Z,5.87
2024-05-09T22:46:13.205Z,5.39
2024-05-09T22:49:00.729Z,5.56
2024-05-09T22:51:48.932Z,5.02
2024-05-09T22:54:34.187Z,5.34
2024-05-09T22:57:20.769Z,5.04
2024-05-09T23:00:12.402Z,5.41
2024-05-09T23:02:57.459Z,5.23
2024-05-09T23:05:42.680Z,5.65
2024-05-09T23:08:28.585Z,5.33
2024-05-09T23:11:14.291Z,5.29
2024-05-09T23:13:59.771Z,5.74
2024-05-09T23:16:45.554Z,5.80
2024-05-09T23:19:31.296Z,5.36
2024-05-09T23:22:16.815Z,5.60
2024-05-09T23:25:02.004Z,5.41
2024-05-09T23:27:47.826Z,6.00
2024-05-09T23:30:37.868Z,5.94
2024-05-09T23:33:29.919Z,5.72
2024-05-09T23:36:17.628Z,6.24
2024-05-09T23:39:05.823Z,6.08
2024-05-09T23:41:51.551Z,5.82
2024-05-09T23:44:37.568Z,6.72
2024-05-09T23:47:22.920Z,7.00
2024-05-09T23:50:20.272Z,6.91
2024-05-09T23:53:10.066Z,5.64
2024-05-09T23:55:56.250Z,5.67
2024-05-09T23:58:44.177Z,5.95
